createdAt,value
2023-03-13T00:00:16.964Z,8.64
2023-03-13T00:01:16.996Z,8.57
2023-03-13T00:02:17.136Z,8.54
2023-03-13T00:03:16.974Z,8.56
2023-03-13T00:04:19.727Z,8.42
2023-03-13T00:05:17.122Z,8.38
2023-03-13T00:06:16.948Z,8.41
2023-03-13T00:07:16.943Z,8.42
2023-03-13T00:08:16.833Z,8.5
2023-03-13T00:09:16.956Z,8.54
2023-03-13T00:10:16.971Z,8.61
2023-03-13T00:11:17.120Z,8.63
2023-03-13T00:12:16.965Z,8.53
2023-03-13T00:13:16.952Z,8.6
2023-03-13T00:14:16.927Z,8.44
2023-03-13T00:15:19.996Z,8.54
2023-03-13T00:16:17.339Z,8.64
2023-03-13T00:17:16.955Z,8.68
2023-03-13T00:18:16.992Z,8.63
2023-03-13T00:19:17.076Z,8.68
2023-03-13T00:20:16.953Z,8.71
2023-03-13T00:21:16.793Z,8.68
2023-03-13T00:22:16.975Z,8.6
2023-03-13T00:23:16.832Z,8.54
2023-03-13T00:24:17.302Z,8.68
2023-03-13T00:25:16.979Z,8.53
2023-03-13T00:26:19.794Z,8.53
2023-03-13T00:27:16.854Z,8.52
2023-03-13T00:28:17.073Z,8.49
2023-03-13T00:29:16.832Z,8.41
2023-03-13T00:30:16.982Z,8.46
2023-03-13T00:31:17.429Z,8.41
2023-03-13T00:32:17.295Z,8.39
2023-03-13T00:33:17.010Z,8.34
2023-03-13T00:34:16.974Z,8.21
2023-03-13T00:35:17.107Z,8.31
2023-03-13T00:36:16.979Z,8.2
2023-03-13T00:37:19.817Z,8.11
2023-03-13T00:38:17.012Z,8.34
2023-03-13T00:39:16.990Z,8.23
2023-03-13T00:40:16.984Z,8.26
2023-03-13T00:41:17.005Z,8.17
2023-03-13T00:42:19.932Z,8.14
2023-03-13T00:43:17.021Z,8.28
2023-03-13T00:44:17.040Z,8.2
2023-03-13T00:45:17.002Z,8.16
2023-03-13T00:46:17.114Z,8.11
2023-03-13T00:47:17.021Z,8.27
2023-03-13T00:48:19.827Z,8.16
2023-03-13T00:49:17.011Z,8.23
2023-03-13T00:50:16.837Z,8.21
2023-03-13T00:51:17.036Z,8.27
2023-03-13T00:52:17.009Z,8.35
2023-03-13T00:53:18.098Z,8.2
2023-03-13T00:54:17.050Z,8.16
2023-03-13T00:55:16.859Z,8.11
2023-03-13T00:56:17.008Z,8.16
2023-03-13T00:57:17.000Z,8.14
2023-03-13T00:58:17.105Z,8.17
2023-03-13T00:59:20.159Z,8.14
2023-03-13T01:00:17.067Z,8.13
2023-03-13T01:01:17.053Z,8.18
2023-03-13T01:02:17.537Z,8.11
2023-03-13T01:03:17.586Z,8.14
2023-03-13T01:04:18.119Z,8.16
2023-03-13T01:05:17.031Z,8.06
2023-03-13T01:06:17.059Z,8.13
2023-03-13T01:07:17.064Z,8.21
2023-03-13T01:08:17.063Z,8.11
2023-03-13T01:09:17.021Z,8.23
2023-03-13T01:10:17.052Z,8.27
2023-03-13T01:11:17.030Z,8.23
2023-03-13T01:12:16.891Z,8.27
2023-03-13T01:13:17.098Z,8.35
2023-03-13T01:14:17.069Z,8.38
2023-03-13T01:15:17.063Z,8.31
2023-03-13T01:16:17.237Z,8.18
2023-03-13T01:17:17.047Z,8.28
2023-03-13T01:18:16.907Z,8.38
2023-03-13T01:19:18.088Z,8.27
2023-03-13T01:20:17.098Z,8.31
2023-03-13T01:21:17.055Z,8.38
2023-03-13T01:22:17.050Z,8.32
2023-03-13T01:23:17.122Z,8.34
2023-03-13T01:24:17.062Z,8.32
2023-03-13T01:25:17.077Z,8.36
2023-03-13T01:26:17.233Z,8.35
2023-03-13T01:27:17.073Z,8.41
2023-03-13T01:28:17.101Z,8.39
2023-03-13T01:29:17.048Z,8.41
2023-03-13T01:30:17.100Z,8.31
2023-03-13T01:31:20.010Z,8.35
2023-03-13T01:32:17.143Z,8.35
2023-03-13T01:33:17.093Z,8.44
2023-03-13T01:34:17.067Z,8.38
2023-03-13T01:35:17.085Z,8.42
2023-03-13T01:36:17.084Z,8.44
2023-03-13T01:37:17.075Z,8.45
2023-03-13T01:38:17.151Z,8.46
2023-03-13T01:39:17.116Z,8.5
2023-03-13T01:40:17.088Z,8.46
2023-03-13T01:41:17.083Z,8.57
2023-03-13T01:42:17.074Z,8.49
2023-03-13T01:43:32.994Z,8.42
2023-03-13T01:44:17.077Z,8.28
2023-03-13T01:45:17.084Z,8.27
2023-03-13T01:46:17.090Z,8.32
2023-03-13T01:47:19.987Z,8.28
2023-03-13T01:48:16.927Z,8.28
2023-03-13T01:49:17.132Z,8.35
2023-03-13T01:50:17.081Z,8.28
2023-03-13T01:51:17.094Z,8.27
2023-03-13T01:52:17.145Z,8.27
2023-03-13T01:53:16.937Z,8.35
2023-03-13T01:54:17.147Z,8.34
2023-03-13T01:55:17.141Z,8.31
2023-03-13T01:56:17.109Z,8.24
2023-03-13T01:57:17.123Z,8.24
2023-03-13T01:58:20.256Z,8.2
2023-03-13T01:59:17.145Z,8.27
2023-03-13T02:00:17.104Z,8.26
2023-03-13T02:01:17.069Z,8.18
2023-03-13T02:02:17.136Z,8.26
2023-03-13T02:03:17.473Z,8.32
2023-03-13T02:04:17.168Z,8.32
2023-03-13T02:05:17.114Z,8.32
2023-03-13T02:06:17.127Z,8.28
2023-03-13T02:07:17.135Z,8.35
2023-03-13T02:08:17.118Z,8.23
2023-03-13T02:09:20.180Z,8.2
2023-03-13T02:10:17.148Z,8.23
2023-03-13T02:11:17.174Z,8.28
2023-03-13T02:12:17.165Z,8.23
2023-03-13T02:13:16.976Z,8.28
2023-03-13T02:14:16.999Z,8.32
2023-03-13T02:15:17.123Z,8.36
2023-03-13T02:16:17.359Z,8.28
2023-03-13T02:17:17.612Z,8.39
2023-03-13T02:18:16.980Z,8.41
2023-03-13T02:19:17.178Z,8.44
2023-03-13T02:20:18.200Z,8.44
2023-03-13T02:21:17.135Z,8.38
2023-03-13T02:22:17.141Z,8.44
2023-03-13T02:23:18.358Z,8.49
2023-03-13T02:24:17.142Z,8.52
2023-03-13T02:25:16.996Z,8.52
2023-03-13T02:26:16.976Z,8.54
2023-03-13T02:27:17.169Z,8.49
2023-03-13T02:28:17.207Z,8.5
2023-03-13T02:29:17.142Z,8.52
2023-03-13T02:30:17.143Z,8.46
2023-03-13T02:31:20.259Z,8.44
2023-03-13T02:32:17.019Z,8.57
2023-03-13T02:33:17.000Z,8.61
2023-03-13T02:34:17.000Z,8.56
2023-03-13T02:35:17.207Z,8.66
2023-03-13T02:36:17.204Z,8.59
2023-03-13T02:37:17.154Z,8.53
2023-03-13T02:38:17.146Z,8.56
2023-03-13T02:39:17.162Z,8.64
2023-03-13T02:40:17.170Z,8.6
2023-03-13T02:41:17.150Z,8.61
2023-03-13T02:42:20.120Z,8.6
2023-03-13T02:43:17.171Z,8.64
2023-03-13T02:44:17.177Z,8.64
2023-03-13T02:45:17.233Z,8.69
2023-03-13T02:46:17.463Z,8.71
2023-03-13T02:47:17.210Z,8.63
2023-03-13T02:48:16.994Z,8.72
2023-03-13T02:49:17.189Z,8.68
2023-03-13T02:50:17.233Z,8.69
2023-03-13T02:51:17.189Z,8.71
2023-03-13T02:52:17.183Z,8.71
2023-03-13T02:53:19.953Z,8.72
2023-03-13T02:54:17.009Z,8.66
2023-03-13T02:55:17.046Z,8.77
2023-03-13T02:56:17.177Z,8.74
2023-03-13T02:57:17.182Z,8.69
2023-03-13T02:58:17.275Z,8.78
2023-03-13T02:59:17.202Z,8.78
2023-03-13T03:00:17.242Z,8.78
2023-03-13T03:01:17.426Z,8.75
2023-03-13T03:02:17.192Z,8.74
2023-03-13T03:03:17.187Z,8.72
2023-03-13T03:04:20.621Z,8.79
2023-03-13T03:05:17.250Z,8.84
2023-03-13T03:06:17.237Z,8.71
2023-03-13T03:07:17.100Z,8.79
2023-03-13T03:08:17.237Z,8.86
2023-03-13T03:09:17.253Z,8.82
2023-03-13T03:10:17.229Z,8.79
2023-03-13T03:11:17.231Z,8.81
2023-03-13T03:12:17.219Z,8.78
2023-03-13T03:13:17.202Z,8.71
2023-03-13T03:14:17.394Z,8.86
2023-03-13T03:15:20.071Z,8.79
2023-03-13T03:16:17.521Z,8.81
2023-03-13T03:17:17.199Z,8.75
2023-03-13T03:18:17.215Z,8.78
2023-03-13T03:19:17.211Z,8.77
2023-03-13T03:20:18.186Z,8.78
2023-03-13T03:21:17.231Z,8.84
2023-03-13T03:22:17.317Z,8.72
2023-03-13T03:23:17.270Z,8.87
2023-03-13T03:24:17.227Z,8.78
2023-03-13T03:25:17.280Z,8.79
2023-03-13T03:26:20.009Z,8.86
2023-03-13T03:27:17.211Z,8.93
2023-03-13T03:28:17.201Z,8.78
2023-03-13T03:29:17.247Z,8.79
2023-03-13T03:30:17.268Z,8.92
2023-03-13T03:31:20.352Z,8.86
2023-03-13T03:32:17.240Z,8.77
2023-03-13T03:33:17.257Z,8.86
2023-03-13T03:34:17.256Z,8.86
2023-03-13T03:35:17.257Z,8.89
2023-03-13T03:36:17.347Z,8.84
2023-03-13T03:37:17.241Z,8.87
2023-03-13T03:38:17.266Z,8.79
2023-03-13T03:39:17.311Z,8.86
2023-03-13T03:40:17.261Z,8.89
2023-03-13T03:41:17.270Z,8.82
2023-03-13T03:42:17.252Z,8.86
2023-03-13T03:43:17.315Z,8.86
2023-03-13T03:44:17.257Z,8.89
2023-03-13T03:45:17.257Z,8.82
2023-03-13T03:46:17.653Z,8.82
2023-03-13T03:47:17.469Z,8.77
2023-03-13T03:48:17.237Z,8.79
2023-03-13T03:49:17.248Z,8.89
2023-03-13T03:50:17.291Z,8.79
2023-03-13T03:51:17.293Z,8.96
2023-03-13T03:52:17.281Z,8.84
2023-03-13T03:53:17.259Z,8.84
2023-03-13T03:54:17.277Z,8.9
2023-03-13T03:55:17.378Z,8.82
2023-03-13T03:56:17.293Z,8.9
2023-03-13T03:57:17.277Z,8.82
2023-03-13T03:58:20.369Z,8.97
2023-03-13T03:59:17.249Z,8.87
2023-03-13T04:00:17.354Z,8.89
2023-03-13T04:01:17.282Z,8.9
2023-03-13T04:02:17.586Z,8.9
2023-03-13T04:03:17.531Z,8.93
2023-03-13T04:04:17.269Z,8.86
2023-03-13T04:05:17.316Z,8.89
2023-03-13T04:06:17.274Z,8.97
2023-03-13T04:07:17.303Z,8.89
2023-03-13T04:08:17.297Z,8.96
2023-03-13T04:09:17.286Z,8.97
2023-03-13T04:10:17.335Z,8.89
2023-03-13T04:11:17.308Z,8.89
2023-03-13T04:12:17.288Z,8.93
2023-03-13T04:13:17.289Z,8.95
2023-03-13T04:14:20.355Z,8.92
2023-03-13T04:15:17.337Z,8.97
2023-03-13T04:16:17.559Z,8.93
2023-03-13T04:17:17.319Z,8.9
2023-03-13T04:18:17.332Z,9
2023-03-13T04:19:17.305Z,8.96
2023-03-13T04:20:17.334Z,8.96
2023-03-13T04:21:17.335Z,9.02
2023-03-13T04:22:17.312Z,8.97
2023-03-13T04:23:17.303Z,8.96
2023-03-13T04:24:17.318Z,9
2023-03-13T04:25:20.144Z,9.09
2023-03-13T04:26:17.300Z,8.95
2023-03-13T04:27:17.422Z,9
2023-03-13T04:28:17.328Z,9
2023-03-13T04:29:17.308Z,8.96
2023-03-13T04:30:20.860Z,9.03
2023-03-13T04:31:17.522Z,9.11
2023-03-13T04:32:17.335Z,9.03
2023-03-13T04:33:17.309Z,9.11
2023-03-13T04:34:17.330Z,9.05
2023-03-13T04:35:17.669Z,9.12
2023-03-13T04:36:20.582Z,9.11
2023-03-13T04:37:17.324Z,9.09
2023-03-13T04:38:17.308Z,9.03
2023-03-13T04:39:17.316Z,9.11
2023-03-13T04:40:17.385Z,9.05
2023-03-13T04:41:17.361Z,9.15
2023-03-13T04:42:17.333Z,9.18
2023-03-13T04:43:17.376Z,9.16
2023-03-13T04:44:17.329Z,9.13
2023-03-13T04:45:17.336Z,9.15
2023-03-13T04:46:17.576Z,9.11
2023-03-13T04:47:18.429Z,9.13
2023-03-13T04:48:17.327Z,9.12
2023-03-13T04:49:17.421Z,9.18
2023-03-13T04:50:17.357Z,9.16
2023-03-13T04:51:17.442Z,9.21
2023-03-13T04:52:17.337Z,9.15
2023-03-13T04:53:17.342Z,9.16
2023-03-13T04:54:17.358Z,9.21
2023-03-13T04:55:17.344Z,9.21
2023-03-13T04:56:17.349Z,9.19
2023-03-13T04:57:17.385Z,9.24
2023-03-13T04:58:20.356Z,9.27
2023-03-13T04:59:17.405Z,9.22
2023-03-13T05:00:17.394Z,9.19
2023-03-13T05:01:17.490Z,9.22
2023-03-13T05:02:17.363Z,9.24
2023-03-13T05:03:17.444Z,9.29
2023-03-13T05:04:17.373Z,9.27
2023-03-13T05:05:17.701Z,9.3
2023-03-13T05:06:17.506Z,9.27
2023-03-13T05:07:17.383Z,9.3
2023-03-13T05:08:17.378Z,9.24
2023-03-13T05:09:20.390Z,9.31
2023-03-13T05:10:17.402Z,9.37
2023-03-13T05:11:17.402Z,9.29
2023-03-13T05:12:17.389Z,9.22
2023-03-13T05:13:17.410Z,9.3
2023-03-13T05:14:17.374Z,9.27
2023-03-13T05:15:17.434Z,9.27
2023-03-13T05:16:17.731Z,9.26
2023-03-13T05:17:17.383Z,9.33
2023-03-13T05:18:17.400Z,9.31
2023-03-13T05:19:17.390Z,9.29
2023-03-13T05:20:20.331Z,9.34
2023-03-13T05:21:17.411Z,9.3
2023-03-13T05:22:17.413Z,9.21
2023-03-13T05:23:17.402Z,9.29
2023-03-13T05:24:20.356Z,9.26
2023-03-13T05:25:17.407Z,9.33
2023-03-13T05:26:17.445Z,9.37
2023-03-13T05:27:17.418Z,9.39
2023-03-13T05:28:17.420Z,9.29
2023-03-13T05:29:17.434Z,9.29
2023-03-13T05:30:17.419Z,9.34
2023-03-13T05:31:20.472Z,9.26
2023-03-13T05:32:17.439Z,9.27
2023-03-13T05:33:17.609Z,9.29
2023-03-13T05:34:17.446Z,9.36
2023-03-13T05:35:17.624Z,9.29
2023-03-13T05:36:18.259Z,9.21
2023-03-13T05:37:17.500Z,9.31
2023-03-13T05:38:17.453Z,9.29
2023-03-13T05:39:17.449Z,9.29
2023-03-13T05:40:17.458Z,9.3
2023-03-13T05:41:17.441Z,9.24
2023-03-13T05:42:20.435Z,9.3
2023-03-13T05:43:17.425Z,9.3
2023-03-13T05:44:17.430Z,9.26
2023-03-13T05:45:17.502Z,9.22
2023-03-13T05:46:17.599Z,9.33
2023-03-13T05:47:20.249Z,9.27
2023-03-13T05:48:17.437Z,9.33
2023-03-13T05:49:17.434Z,9.27
2023-03-13T05:50:17.494Z,9.3
2023-03-13T05:51:17.480Z,9.3
2023-03-13T05:52:17.481Z,9.27
2023-03-13T05:53:20.532Z,9.21
2023-03-13T05:54:20.083Z,9.3
2023-03-13T05:55:17.468Z,9.26
2023-03-13T05:56:17.499Z,9.29
2023-03-13T05:57:17.437Z,9.18
2023-03-13T05:58:20.242Z,9.19
2023-03-13T05:59:17.461Z,9.16
2023-03-13T06:00:17.461Z,9.27
2023-03-13T06:01:17.494Z,9.31
2023-03-13T06:02:17.434Z,9.22
2023-03-13T06:03:19.131Z,9.36
2023-03-13T06:04:17.990Z,9.34
2023-03-13T06:05:17.510Z,9.33
2023-03-13T06:06:17.495Z,9.22
2023-03-13T06:07:17.496Z,9.34
2023-03-13T06:08:17.439Z,9.48
2023-03-13T06:09:17.479Z,9.42
2023-03-13T06:10:17.499Z,9.45
2023-03-13T06:11:17.499Z,9.47
2023-03-13T06:12:17.447Z,9.48
2023-03-13T06:13:24.714Z,9.44
2023-03-13T06:14:17.469Z,9.51
2023-03-13T06:15:17.461Z,9.59
2023-03-13T06:16:17.718Z,9.58
2023-03-13T06:17:17.538Z,9.59
2023-03-13T06:18:17.454Z,9.58
2023-03-13T06:19:17.554Z,9.54
2023-03-13T06:20:17.471Z,9.69
2023-03-13T06:21:17.521Z,9.69
2023-03-13T06:22:18.537Z,9.64
2023-03-13T06:23:17.510Z,9.72
2023-03-13T06:24:17.467Z,9.7
2023-03-13T06:25:20.530Z,9.74
2023-03-13T06:26:17.599Z,9.69
2023-03-13T06:27:17.504Z,9.77
2023-03-13T06:28:17.475Z,9.8
2023-03-13T06:29:17.477Z,9.73
2023-03-13T06:30:17.486Z,9.92
2023-03-13T06:31:17.793Z,9.8
2023-03-13T06:32:17.767Z,9.87
2023-03-13T06:33:17.762Z,9.85
2023-03-13T06:34:17.508Z,9.88
2023-03-13T06:35:17.536Z,9.82
2023-03-13T06:36:20.791Z,9.88
2023-03-13T06:37:17.509Z,9.99
2023-03-13T06:38:17.504Z,9.87
2023-03-13T06:39:17.500Z,9.84
2023-03-13T06:40:17.549Z,9.85
2023-03-13T06:41:20.435Z,9.97
2023-03-13T06:42:17.508Z,9.9
2023-03-13T06:43:17.563Z,9.85
2023-03-13T06:44:17.565Z,9.9
2023-03-13T06:45:17.597Z,9.97
2023-03-13T06:46:18.352Z,9.84
2023-03-13T06:47:23.227Z,9.99
2023-03-13T06:48:17.529Z,9.9
2023-03-13T06:49:17.531Z,9.97
2023-03-13T06:50:17.538Z,10
2023-03-13T06:51:17.558Z,10.06
2023-03-13T06:52:28.713Z,9.99
2023-03-13T06:53:17.566Z,10.06
2023-03-13T06:54:17.532Z,10.05
2023-03-13T06:55:17.596Z,10.02
2023-03-13T06:56:17.551Z,10.06
2023-03-13T06:57:17.534Z,10.06
2023-03-13T06:58:35.384Z,10.13
2023-03-13T06:59:17.603Z,10.07
2023-03-13T07:00:17.545Z,10.2
2023-03-13T07:01:17.877Z,10.2
2023-03-13T07:02:17.529Z,10.21
2023-03-13T07:03:20.316Z,10.27
2023-03-13T07:04:17.859Z,10.13
2023-03-13T07:05:17.567Z,10.2
2023-03-13T07:06:17.542Z,10.3
2023-03-13T07:07:34.611Z,10.28
2023-03-13T07:08:17.535Z,10.3
2023-03-13T07:09:17.546Z,10.38
2023-03-13T07:10:17.538Z,10.28
2023-03-13T07:11:17.646Z,10.38
2023-03-13T07:12:17.549Z,10.41
2023-03-13T07:13:17.594Z,10.39
2023-03-13T07:14:22.132Z,10.33
2023-03-13T07:15:17.637Z,10.39
2023-03-13T07:16:18.058Z,10.39
2023-03-13T07:17:17.741Z,10.31
2023-03-13T07:18:17.597Z,10.38
2023-03-13T07:19:17.760Z,10.48
2023-03-13T07:20:23.318Z,10.48
2023-03-13T07:21:17.583Z,10.53
2023-03-13T07:22:17.567Z,10.53
2023-03-13T07:23:17.631Z,10.46
2023-03-13T07:24:17.805Z,10.49
2023-03-13T07:25:20.490Z,10.64
2023-03-13T07:26:17.754Z,10.57
2023-03-13T07:27:17.730Z,10.59
2023-03-13T07:28:17.578Z,10.68
2023-03-13T07:29:17.644Z,10.62
2023-03-13T07:30:17.636Z,10.75
2023-03-13T07:31:18.073Z,10.77
2023-03-13T07:32:17.650Z,10.76
2023-03-13T07:33:17.625Z,10.77
2023-03-13T07:34:17.642Z,10.79
2023-03-13T07:35:17.616Z,10.82
2023-03-13T07:36:20.974Z,10.89
2023-03-13T07:37:17.599Z,10.86
2023-03-13T07:38:17.646Z,10.82
2023-03-13T07:39:17.608Z,10.82
2023-03-13T07:40:17.637Z,10.87
2023-03-13T07:41:17.627Z,10.89
2023-03-13T07:42:17.686Z,10.86
2023-03-13T07:43:17.637Z,10.92
2023-03-13T07:44:17.661Z,10.94
2023-03-13T07:45:18.151Z,11
2023-03-13T07:46:17.859Z,11.07
2023-03-13T07:47:20.385Z,11.05
2023-03-13T07:48:17.609Z,11.02
2023-03-13T07:49:18.074Z,11.18
2023-03-13T07:50:17.758Z,11.19
2023-03-13T07:51:17.661Z,11.2
2023-03-13T07:52:17.672Z,11.23
2023-03-13T07:53:20.782Z,11.23
2023-03-13T07:54:17.613Z,11.2
2023-03-13T07:55:17.648Z,11.27
2023-03-13T07:56:18.661Z,11.3
2023-03-13T07:57:18.139Z,11.48
2023-03-13T07:58:20.821Z,11.35
2023-03-13T07:59:17.667Z,11.35
2023-03-13T08:00:18.032Z,11.43
2023-03-13T08:01:17.681Z,11.41
2023-03-13T08:02:17.845Z,11.41
2023-03-13T08:03:17.841Z,11.49
2023-03-13T08:04:17.666Z,11.51
2023-03-13T08:05:17.633Z,11.44
2023-03-13T08:06:17.668Z,11.44
2023-03-13T08:07:17.677Z,11.48
2023-03-13T08:08:17.885Z,11.48
2023-03-13T08:09:21.091Z,11.55
2023-03-13T08:10:18.028Z,11.67
2023-03-13T08:11:17.680Z,11.56
2023-03-13T08:12:18.413Z,11.52
2023-03-13T08:13:17.637Z,11.48
2023-03-13T08:14:21.167Z,11.52
2023-03-13T08:15:17.650Z,11.56
2023-03-13T08:16:17.859Z,11.56
2023-03-13T08:17:17.720Z,11.59
2023-03-13T08:18:17.658Z,11.65
2023-03-13T08:19:17.661Z,11.62
2023-03-13T08:20:20.449Z,11.63
2023-03-13T08:21:17.658Z,11.7
2023-03-13T08:22:17.708Z,11.71
2023-03-13T08:23:17.667Z,11.76
2023-03-13T08:24:17.686Z,11.8
2023-03-13T08:25:18.768Z,11.7
2023-03-13T08:26:17.746Z,11.81
2023-03-13T08:27:17.828Z,11.86
2023-03-13T08:28:17.693Z,11.85
2023-03-13T08:29:17.659Z,11.93
2023-03-13T08:30:17.701Z,11.88
2023-03-13T08:31:18.037Z,11.95
2023-03-13T08:32:17.710Z,12.02
2023-03-13T08:33:17.722Z,12
2023-03-13T08:34:17.714Z,11.97
2023-03-13T08:35:17.670Z,12.07
2023-03-13T08:36:17.681Z,12.02
2023-03-13T08:37:17.711Z,12.02
2023-03-13T08:38:17.676Z,12.07
2023-03-13T08:39:17.704Z,12.18
2023-03-13T08:40:17.722Z,12.17
2023-03-13T08:41:17.685Z,12.18
2023-03-13T08:42:17.802Z,12.18
2023-03-13T08:43:17.734Z,12.17
2023-03-13T08:44:17.700Z,12.26
2023-03-13T08:45:17.729Z,12.25
2023-03-13T08:46:20.678Z,12.26
2023-03-13T08:47:17.831Z,12.35
2023-03-13T08:48:17.709Z,12.32
2023-03-13T08:49:17.921Z,12.39
2023-03-13T08:50:17.762Z,12.29
2023-03-13T08:51:17.793Z,12.32
2023-03-13T08:52:20.858Z,12.37
2023-03-13T08:53:17.723Z,12.4
2023-03-13T08:54:17.784Z,12.58
2023-03-13T08:55:17.743Z,12.51
2023-03-13T08:56:17.760Z,12.51
2023-03-13T08:57:17.743Z,12.57
2023-03-13T08:58:17.749Z,12.72
2023-03-13T08:59:17.822Z,12.63
2023-03-13T09:00:17.796Z,12.69
2023-03-13T09:01:17.743Z,12.68
2023-03-13T09:02:17.911Z,12.76
2023-03-13T09:03:20.659Z,12.83
2023-03-13T09:04:17.845Z,12.87
2023-03-13T09:05:17.777Z,12.86
2023-03-13T09:06:17.780Z,12.91
2023-03-13T09:07:17.791Z,12.93
2023-03-13T09:08:20.529Z,12.98
2023-03-13T09:09:20.522Z,12.93
2023-03-13T09:10:17.741Z,13.01
2023-03-13T09:11:17.848Z,13.01
2023-03-13T09:12:34.263Z,13.09
2023-03-13T09:13:17.751Z,13.2
2023-03-13T09:14:17.751Z,13.27
2023-03-13T09:15:17.768Z,13.33
2023-03-13T09:16:18.209Z,13.45
2023-03-13T09:17:17.782Z,13.33
2023-03-13T09:18:17.918Z,13.6
2023-03-13T09:19:20.814Z,13.5
2023-03-13T09:20:17.780Z,13.54
2023-03-13T09:21:17.812Z,13.49
2023-03-13T09:22:17.778Z,13.58
2023-03-13T09:23:17.800Z,13.57
2023-03-13T09:24:17.811Z,13.7
2023-03-13T09:25:17.776Z,13.68
2023-03-13T09:26:17.780Z,13.8
2023-03-13T09:27:17.772Z,13.76
2023-03-13T09:28:17.907Z,13.79
2023-03-13T09:29:17.771Z,13.87
2023-03-13T09:30:20.871Z,13.91
2023-03-13T09:31:18.233Z,13.95
2023-03-13T09:32:17.671Z,14.01
2023-03-13T09:33:17.819Z,14.16
2023-03-13T09:34:17.799Z,14.16
2023-03-13T09:35:17.795Z,14.22
2023-03-13T09:36:20.805Z,14.31
2023-03-13T09:37:17.825Z,14.31
2023-03-13T09:38:17.658Z,14.3
2023-03-13T09:39:17.790Z,14.38
2023-03-13T09:40:17.833Z,14.37
2023-03-13T09:41:20.593Z,14.41
2023-03-13T09:42:17.828Z,14.4
2023-03-13T09:43:17.834Z,14.43
2023-03-13T09:44:17.957Z,14.66
2023-03-13T09:45:17.853Z,14.67
2023-03-13T09:46:18.128Z,14.73
2023-03-13T09:47:17.857Z,14.89
2023-03-13T09:48:17.836Z,14.9
2023-03-13T09:49:20.498Z,14.87
2023-03-13T09:50:17.821Z,15.05
2023-03-13T09:51:17.669Z,15
2023-03-13T09:52:20.601Z,15.07
2023-03-13T09:53:17.889Z,15.1
2023-03-13T09:54:17.651Z,15.15
2023-03-13T09:55:17.850Z,15.14
2023-03-13T09:56:17.824Z,15.17
2023-03-13T09:57:17.841Z,15.11
2023-03-13T09:58:17.851Z,15.08
2023-03-13T09:59:17.661Z,15.1
2023-03-13T10:00:17.860Z,15.18
2023-03-13T10:01:17.982Z,15.02
2023-03-13T10:02:17.702Z,14.99
2023-03-13T10:03:21.194Z,15.12
2023-03-13T10:04:18.077Z,15.12
2023-03-13T10:05:17.911Z,15.05
2023-03-13T10:06:17.833Z,15.02
2023-03-13T10:07:17.868Z,15.02
2023-03-13T10:08:17.913Z,15.11
2023-03-13T10:09:17.838Z,15
2023-03-13T10:10:18.766Z,15.04
2023-03-13T10:11:17.831Z,15.04
2023-03-13T10:12:17.705Z,15.04
2023-03-13T10:13:17.864Z,14.99
2023-03-13T10:14:20.848Z,14.93
2023-03-13T10:15:17.861Z,15.04
2023-03-13T10:16:20.652Z,15.02
2023-03-13T10:17:17.849Z,14.97
2023-03-13T10:18:17.949Z,15
2023-03-13T10:19:17.892Z,15.04
2023-03-13T10:20:18.013Z,14.9
2023-03-13T10:21:17.907Z,14.9
2023-03-13T10:22:17.896Z,14.94
2023-03-13T10:23:17.879Z,14.93
2023-03-13T10:24:17.910Z,14.97
2023-03-13T10:25:20.643Z,14.86
2023-03-13T10:26:17.879Z,14.94
2023-03-13T10:27:17.852Z,14.96
2023-03-13T10:28:17.903Z,14.82
2023-03-13T10:29:17.865Z,14.93
2023-03-13T10:30:17.869Z,14.94
2023-03-13T10:31:17.991Z,14.9
2023-03-13T10:32:18.018Z,14.93
2023-03-13T10:33:17.879Z,14.99
2023-03-13T10:34:17.943Z,14.97
2023-03-13T10:35:17.924Z,14.9
2023-03-13T10:36:19.133Z,14.92
2023-03-13T10:37:17.901Z,14.92
2023-03-13T10:38:17.930Z,14.9
2023-03-13T10:39:17.923Z,14.86
2023-03-13T10:40:17.966Z,14.85
2023-03-13T10:41:20.928Z,14.9
2023-03-13T10:42:17.905Z,14.82
2023-03-13T10:43:17.929Z,14.9
2023-03-13T10:44:17.946Z,14.92
2023-03-13T10:45:17.913Z,14.93
2023-03-13T10:46:18.024Z,14.96
2023-03-13T10:47:21.113Z,14.81
2023-03-13T10:48:17.948Z,14.82
2023-03-13T10:49:17.911Z,14.82
2023-03-13T10:50:17.773Z,14.86
2023-03-13T10:51:17.921Z,14.94
2023-03-13T10:52:19.017Z,14.97
2023-03-13T10:53:17.933Z,14.97
2023-03-13T10:54:17.946Z,15.02
2023-03-13T10:55:17.930Z,14.99
2023-03-13T10:56:17.946Z,14.96
2023-03-13T10:57:17.951Z,14.96
2023-03-13T10:58:17.949Z,14.99
2023-03-13T10:59:17.926Z,14.96
2023-03-13T11:00:17.960Z,14.85
2023-03-13T11:01:17.953Z,14.97
2023-03-13T11:02:18.030Z,14.9
2023-03-13T11:03:18.563Z,14.9
2023-03-13T11:04:17.926Z,14.92
2023-03-13T11:05:18.229Z,14.9
2023-03-13T11:06:17.949Z,14.94
2023-03-13T11:07:17.970Z,15
2023-03-13T11:08:18.168Z,15.02
2023-03-13T11:09:17.943Z,15.07
2023-03-13T11:10:18.030Z,15.04
2023-03-13T11:11:17.943Z,15.14
2023-03-13T11:12:18.102Z,15.19
2023-03-13T11:13:34.100Z,15.26
2023-03-13T11:14:17.960Z,15.22
2023-03-13T11:15:18.140Z,15.36
2023-03-13T11:16:18.178Z,15.39
2023-03-13T11:17:18.002Z,15.37
2023-03-13T11:18:18.009Z,15.45
2023-03-13T11:19:21.076Z,15.54
2023-03-13T11:20:18.073Z,15.5
2023-03-13T11:21:23.002Z,15.52
2023-03-13T11:22:18.192Z,15.65
2023-03-13T11:23:18.028Z,15.54
2023-03-13T11:24:17.988Z,15.48
2023-03-13T11:25:20.108Z,15.66
2023-03-13T11:26:17.977Z,15.72
2023-03-13T11:27:18.107Z,15.6
2023-03-13T11:28:18.075Z,15.72
2023-03-13T11:29:18.158Z,15.76
2023-03-13T11:30:20.843Z,15.7
2023-03-13T11:31:18.276Z,15.84
2023-03-13T11:32:18.057Z,15.62
2023-03-13T11:33:18.015Z,15.73
2023-03-13T11:34:18.010Z,15.72
2023-03-13T11:35:20.907Z,15.65
2023-03-13T11:36:18.262Z,15.73
2023-03-13T11:37:17.980Z,15.69
2023-03-13T11:38:18.093Z,15.62
2023-03-13T11:39:18.076Z,15.55
2023-03-13T11:40:18.008Z,15.52
2023-03-13T11:41:20.974Z,15.54
2023-03-13T11:42:17.987Z,15.6
2023-03-13T11:43:29.520Z,15.63
2023-03-13T11:44:18.045Z,15.57
2023-03-13T11:45:17.996Z,15.52
2023-03-13T11:46:21.306Z,15.54
2023-03-13T11:47:18.089Z,15.54
2023-03-13T11:48:18.039Z,15.63
2023-03-13T11:49:18.008Z,15.54
2023-03-13T11:50:18.257Z,15.51
2023-03-13T11:51:20.690Z,15.59
2023-03-13T11:52:18.009Z,15.57
2023-03-13T11:53:18.770Z,15.54
2023-03-13T11:54:18.018Z,15.5
2023-03-13T11:55:18.093Z,15.57
2023-03-13T11:56:18.064Z,15.6
2023-03-13T11:57:20.858Z,15.62
2023-03-13T11:58:18.049Z,15.65
2023-03-13T11:59:18.062Z,15.63
2023-03-13T12:00:18.069Z,15.69
2023-03-13T12:01:18.241Z,15.72
2023-03-13T12:02:18.297Z,15.81
2023-03-13T12:03:18.005Z,15.83
2023-03-13T12:04:18.096Z,15.81
2023-03-13T12:05:18.199Z,15.85
2023-03-13T12:06:34.027Z,15.9
2023-03-13T12:07:18.061Z,15.87
2023-03-13T12:08:21.027Z,15.98
2023-03-13T12:09:18.035Z,15.98
2023-03-13T12:10:18.131Z,15.98
2023-03-13T12:11:18.104Z,16.1
2023-03-13T12:12:18.045Z,16.22
2023-03-13T12:13:18.071Z,16.12
2023-03-13T12:14:18.052Z,16.28
2023-03-13T12:15:21.233Z,16.28
2023-03-13T12:16:18.264Z,16.37
2023-03-13T12:17:18.182Z,16.55
2023-03-13T12:18:18.112Z,16.51
2023-03-13T12:19:21.237Z,16.47
2023-03-13T12:20:18.134Z,16.51
2023-03-13T12:21:18.083Z,16.57
2023-03-13T12:22:18.181Z,16.68
2023-03-13T12:23:18.088Z,16.68
2023-03-13T12:24:18.061Z,16.69
2023-03-13T12:25:18.234Z,16.68
2023-03-13T12:26:18.070Z,16.57
2023-03-13T12:27:18.121Z,16.65
2023-03-13T12:28:18.342Z,16.66
2023-03-13T12:29:18.085Z,16.51
2023-03-13T12:30:21.016Z,16.57
2023-03-13T12:31:18.388Z,16.57
2023-03-13T12:32:18.126Z,16.51
2023-03-13T12:33:18.108Z,16.61
2023-03-13T12:34:18.089Z,16.62
2023-03-13T12:35:18.128Z,16.68
2023-03-13T12:36:18.225Z,16.92
2023-03-13T12:37:18.134Z,17.05
2023-03-13T12:38:18.237Z,17.24
2023-03-13T12:39:18.102Z,17.44
2023-03-13T12:40:18.142Z,17.66
2023-03-13T12:41:21.142Z,17.91
2023-03-13T12:42:18.092Z,18.02
2023-03-13T12:43:18.147Z,18.21
2023-03-13T12:44:18.121Z,18.37
2023-03-13T12:45:18.284Z,18.67
2023-03-13T12:46:18.430Z,18.79
2023-03-13T12:47:18.150Z,18.86
2023-03-13T12:48:18.608Z,18.89
2023-03-13T12:49:18.118Z,19.05
2023-03-13T12:50:19.196Z,19.3
2023-03-13T12:51:18.142Z,19.44
2023-03-13T12:52:20.967Z,19.59
2023-03-13T12:53:20.822Z,19.55
2023-03-13T12:54:18.406Z,19.64
2023-03-13T12:55:18.156Z,19.84
2023-03-13T12:56:18.356Z,20.02
2023-03-13T12:57:18.203Z,19.89
2023-03-13T12:58:18.153Z,19.96
2023-03-13T12:59:18.149Z,19.94
2023-03-13T13:00:18.220Z,20.17
2023-03-13T13:01:18.313Z,20.27
2023-03-13T13:02:18.169Z,20.14
2023-03-13T13:03:21.264Z,20.12
2023-03-13T13:04:18.378Z,20.26
2023-03-13T13:05:18.149Z,20.46
2023-03-13T13:06:18.272Z,20.5
2023-03-13T13:07:18.149Z,20.59
2023-03-13T13:08:19.591Z,20.67
2023-03-13T13:09:18.175Z,20.66